Nearby METAR Reports

 

KIAG - Niagara Falls, New York, USA
Distance from station: W 13mi, 20km
Updated: Fri, 21-Jan-2022 11:53am EST
Clear
Clear
 Wind from E
Wind: E 6 mph , 9 km/h
Temperature: 12°F , -11°C
Wind Chill: 2°F , -17°C
Dew Point: 1°F , -17°C
Humidity: 62%
Barometer: 30.64 inHg , 1037.6 hPa
Clouds: Clear
Visibility: 10 miles , 16 km
2022/01/21 16:53 KIAG 211653Z 09005KT 10SM CLR M11/M17 A3064 RMK AO2 SLP401 T11111172
KBUF - Buffalo/Cheektow, New York, USA
Distance from station: S 15mi, 24km
Updated: Fri, 21-Jan-2022 11:54am EST
Few Clouds
Few Clouds
 Wind from calm
Wind: Calm
Temperature: 14°F , -10°C
Dew Point: 1°F , -17°C
Humidity: 57%
Barometer: 30.62 inHg , 1036.9 hPa
Clouds: Few Clouds
Visibility: 10 miles , 16 km
Cloud details: Few Clouds 1900 ft
Few Clouds 2900 ft
2022/01/21 16:54 KBUF 211654Z 00000KT 10SM FEW019 FEW029 M10/M17 A3062 RMK AO2 SNE07 SLP387 P0000 T11001167
 
CYSN - St. Catharines A, Ontario, Canada
Distance from station: W 24mi, 39km
Updated: Fri, 21-Jan-2022 11:00am EST
Mostly cloudy
Mostly cloudy
 Wind from SE
Wind: SE 6 mph , 9 km/h
Temperature: 12°F , -11°C
Wind Chill: 2°F , -17°C
Dew Point: 1°F , -17°C
Humidity: 62%
Barometer: 30.68 inHg , 1038.9 hPa
Clouds: Mostly cloudy
Visibility: 15 miles , 24 km
Cloud details: Mostly cloudy 2200 ft
2022/01/21 16:00 CYSN 211600Z 14005KT 15SM BKN022 M11/M17 A3068 RMK SC6 SLP397
CWWZ - Port Weller (mar, Ontario, Canada
Distance from station: WNW 28mi, 44km
Updated: Fri, 21-Jan-2022 11:00am EST

 Wind from SE
Wind: SE 5 mph , 7 km/h
Temperature: 16°F , -9°C
Wind Chill: 8°F , -13°C
Dew Point: 5°F , -15°C
Humidity: 62%
2022/01/21 16:00 CWWZ 211600Z AUTO 13004KT M09/M15 RMK AO1 SOG 17 2010 SLP401 T10941146
 
CWPC - Port Colborne(Au, Ontario, Canada
Distance from station: SW 35mi, 56km
Updated: Fri, 21-Jan-2022 11:00am EST

 Wind from ENE
Wind: ENE 8 mph , 13 km/h
Temperature: 9°F , -13°C
Wind Chill: -3°F , -19°C
Dew Point: 1°F , -17°C
Humidity: 72%
2022/01/21 16:00 CWPC 211600Z AUTO 07007KT M13/M17 RMK AO1 SLP404 T11281173 51011
CXVN - Vineland (au8), Ontario, Canada
Distance from station: W 36mi, 58km
Updated: Fri, 21-Jan-2022 11:00am EST

 Wind from SE
Wind: SE 5 mph , 7 km/h
Temperature: 14°F , -10°C
Wind Chill: 6°F , -14°C
Dew Point: 3°F , -16°C
Humidity: 62%
2022/01/21 16:00 CXVN 211600Z AUTO 13004KT M10/M16 RMK AO1 SOG 13 3010 SLP400 T10981155
 
CYTZ - Toronto Il Vor, Ontario, Canada
Distance from station: NW 49mi, 79km
Updated: Fri, 21-Jan-2022 11:00am EST
Clear
Clear
 Wind from ESE
Wind: ESE 6 mph , 9 km/h
Temperature: 9°F , -13°C
Wind Chill: -1°F , -18°C
Dew Point: -2°F , -19°C
Humidity: 61%
Barometer: 30.70 inHg , 1039.6 hPa
Clouds: Clear
Visibility: 9 miles , 14 km
2022/01/21 16:00 CYTZ 211600Z AUTO 11005KT 040V140 9SM CLR M13/M19 A3070 RMK SLP405
KROC - Rochester, New York, USA
Distance from station: E 51mi, 81km
Updated: Fri, 21-Jan-2022 12:02pm EST
Light snow, Mostly cloudy
Light snow, Mostly cloudy
 Wind from N
Wind: N 6 mph , 9 km/h
Temperature: 14°F , -10°C
Wind Chill: 5°F , -15°C
Dew Point: 7°F , -14°C
Humidity: 73%
Barometer: 30.63 inHg , 1037.3 hPa
Summary: Light Snow
Clouds: Mostly cloudy
Visibility: 2 miles , 3 km
Cloud details: Partly cloudy 1400 ft
Mostly cloudy 2700 ft
2022/01/21 17:02 KROC 211702Z 01005KT 2SM R04/4500VP6000FT -SN SCT014 BKN027 M10/M14 A3063 RMK AO2 SFC VIS 3 P0000 T110011
 
CXTO - Toronto City, Ontario, Canada
Distance from station: NW 51mi, 82km
Updated: Fri, 21-Jan-2022 10:00am EST
NOT Current

 
Temperature: 5°F , -15°C
Dew Point: -9°F , -23°C
Humidity: 51%
2022/01/21 15:00 CXTO 211500Z AUTO M15/M23 RMK AO1 SOG 23 3008 SLP395 T11501234
CYOO - Oshawa, Ontario, Canada
Distance from station: NNW 54mi, 87km
Updated: Fri, 21-Jan-2022 11:00am EST
Clear
Clear
 Wind from varies
Wind: varies 2 mph , 4 km/h
Temperature: 3°F , -16°C
Dew Point: -8°F , -22°C
Humidity: 60%
Barometer: 30.67 inHg , 1038.6 hPa
Clouds: Clear
Visibility: 9 miles , 14 km
2022/01/21 16:00 CYOO 211600Z AUTO VRB02KT 9SM CLR M16/M22 A3067 RMK SLP403
 
KDKK - Dunkirk, New York, USA
Distance from station: SW 54mi, 87km
Updated: Fri, 21-Jan-2022 11:53am EST
Clear
Clear
 Wind from NE
Wind: NE 3 mph , 6 km/h
Temperature: 12°F , -11°C
Dew Point: 1°F , -17°C
Humidity: 62%
Barometer: 30.62 inHg , 1036.9 hPa
Clouds: Clear
Visibility: 10 miles , 16 km
2022/01/21 16:53 KDKK 211653Z AUTO 05003KT 10SM CLR M11/M17 A3062 RMK AO2 SLP385 T11061167
CWWB - Burlington Piers, Ontario, Canada
Distance from station: W 56mi, 91km
Updated: Fri, 21-Jan-2022 11:00am EST

 Wind from NNW
Wind: NNW 9 mph , 15 km/h
Temperature: 10°F , -12°C
Wind Chill: -3°F , -19°C
Dew Point: 3°F , -16°C
Humidity: 72%
2022/01/21 16:00 CWWB 211600Z AUTO 33008KT M12/M16 RMK AO1 SLP403 T11191158 53008
 
CYYZ - Toronto/Pearson, Ontario, Canada
Distance from station: NW 59mi, 95km
Updated: Fri, 21-Jan-2022 11:00am EST
Few Clouds
Few Clouds
 Wind from NE
Wind: NE 2 mph , 4 km/h
Temperature: 5°F , -15°C
Dew Point: -9°F , -23°C
Humidity: 51%
Barometer: 30.66 inHg , 1038.3 hPa
Clouds: Few Clouds
Visibility: 15 miles , 24 km
Cloud details: Few Clouds 1700 ft
Few Clouds 8000 ft
2022/01/21 16:00 CYYZ 211600Z 04002KT 15SM FEW017 FEW080 M15/M23 A3066 RMK SF1AC1 SF TR AC TR SLP402
CWNC - Cobourg (mars), Ontario, Canada
Distance from station: NNE 61mi, 98km
Updated: Fri, 21-Jan-2022 11:00am EST

 Wind from E
Wind: E 2 mph , 4 km/h
Temperature: 3°F , -16°C
Dew Point: -13°F , -25°C
Humidity: 46%
2022/01/21 16:00 CWNC 211600Z AUTO 08002KT M16/M25 RMK AO1 SOG 12 1011 SLP402 T11631247 50006
 
CXHM - Hamilton Rbg Cs, Ontario, Canada
Distance from station: W 62mi, 100km
Updated: Fri, 21-Jan-2022 10:00am EST
NOT Current

 Wind from SSW
Wind: SSW 1 mph , 2 km/h
Temperature: 9°F , -13°C
Dew Point: -2°F , -19°C
Humidity: 61%
2022/01/21 15:00 CXHM 211500Z AUTO 21001KT M13/M19 RMK AO1 SLP403 T11291191 51007
CYHM - Hamilton Airport, Ontario, Canada
Distance from station: W 63mi, 101km
Updated: Fri, 21-Jan-2022 11:21am EST
Few Clouds
Few Clouds
 Wind from NNE
Wind: NNE 5 mph , 7 km/h
Temperature: 9°F , -13°C
Wind Chill: 0°F , -18°C
Dew Point: 1°F , -17°C
Humidity: 72%
Barometer: 30.62 inHg , 1036.9 hPa
Clouds: Few Clouds
Visibility: 15 miles , 24 km
Cloud details: Few Clouds 1400 ft
2022/01/21 16:21 CYHM 211621Z 03004KT 15SM FEW014 M13/M17 A3062 RMK SC1 SC TR SLP394
 
KDSV - Dansville, New York, USA
Distance from station: SE 63mi, 102km
Updated: Fri, 21-Jan-2022 11:54am EST
Mostly cloudy
Mostly cloudy
 Wind from NNW
Wind: NNW 5 mph , 7 km/h
Temperature: 12°F , -11°C
Wind Chill: 4°F , -16°C
Dew Point: 1°F , -17°C
Humidity: 62%
Barometer: 30.61 inHg , 1036.6 hPa
Clouds: Mostly cloudy
Visibility: 10 miles , 16 km
Cloud details: Mostly cloudy 3100 ft
2022/01/21 16:54 KDSV 211654Z AUTO 34004KT 10SM BKN031 M11/M17 A3061 RMK AO2 SLP391 T11111172
KOLE - Olean, New York, USA
Distance from station: SSE 65mi, 105km
Updated: Fri, 21-Jan-2022 11:55am EST
Clear
Clear
 Wind from E
Wind: E 5 mph , 7 km/h
Temperature: 7°F , -14°C
Wind Chill: -2°F , -19°C
Dew Point: -2°F , -19°C
Humidity: 66%
Barometer: 30.46 inHg , 1031.5 hPa
Clouds: Clear
Visibility: 10 miles , 16 km
2022/01/21 16:55 KOLE 211655Z AUTO 09004KT 10SM CLR M14/M19 A3046 RMK AO2